createdAt,value
2018-06-22T00:01:37.184Z,11.80
2018-06-22T00:04:05.463Z,11.70
2018-06-22T00:06:33.845Z,11.70
2018-06-22T00:09:02.076Z,11.60
2018-06-22T00:11:30.297Z,11.60
2018-06-22T00:13:58.558Z,11.70
2018-06-22T00:16:26.799Z,11.60
2018-06-22T00:18:55.132Z,11.50
2018-06-22T00:21:23.419Z,11.50
2018-06-22T00:23:51.663Z,11.50
2018-06-22T00:26:19.872Z,11.60
2018-06-22T00:28:48.100Z,11.60
2018-06-22T00:33:44.248Z,11.50
2018-06-22T00:38:40.410Z,11.50
2018-06-22T00:41:08.626Z,11.40
2018-06-22T00:43:37.707Z,11.40
2018-06-22T00:46:05.930Z,11.40
2018-06-22T00:48:34.487Z,11.40
2018-06-22T00:51:02.713Z,11.30
2018-06-22T00:53:42.203Z,11.30
2018-06-22T00:56:10.392Z,11.20
2018-06-22T00:58:38.599Z,11.20
2018-06-22T01:01:06.800Z,11.10
2018-06-22T01:03:35.044Z,11.10
2018-06-22T01:06:03.304Z,11.00
2018-06-22T01:08:34.464Z,11.00
2018-06-22T01:11:02.710Z,10.90
2018-06-22T01:13:31.910Z,10.80
2018-06-22T01:16:00.117Z,10.80
2018-06-22T01:18:28.312Z,10.80
2018-06-22T01:23:24.500Z,10.80
2018-06-22T01:25:52.712Z,10.80
2018-06-22T01:28:21.341Z,10.80
2018-06-22T01:30:57.277Z,10.70
2018-06-22T01:33:25.551Z,10.60
2018-06-22T01:35:54.071Z,10.60
2018-06-22T01:38:22.280Z,10.50
2018-06-22T01:40:50.616Z,10.50
2018-06-22T01:43:18.845Z,10.50
2018-06-22T01:48:19.565Z,10.40
2018-06-22T01:50:47.888Z,10.40
2018-06-22T01:53:16.164Z,10.30
2018-06-22T01:55:44.397Z,10.30
2018-06-22T01:58:12.617Z,10.20
2018-06-22T02:00:44.573Z,10.10
2018-06-22T02:05:42.467Z,10.10
2018-06-22T02:08:10.666Z,10.00
2018-06-22T02:10:38.876Z,10.00
2018-06-22T02:13:07.737Z,10.00
2018-06-22T02:15:39.186Z,10.00
2018-06-22T02:18:08.089Z,10.10
2018-06-22T02:20:36.554Z,10.10
2018-06-22T02:23:04.799Z,10.10
2018-06-22T02:25:32.976Z,10.00
2018-06-22T02:30:33.603Z,10.10
2018-06-22T02:33:01.879Z,10.10
2018-06-22T02:35:30.120Z,10.00
2018-06-22T02:37:58.328Z,10.00
2018-06-22T02:40:26.552Z,9.90
2018-06-22T02:42:55.452Z,9.80
2018-06-22T02:45:23.643Z,9.80
2018-06-22T02:47:52.253Z,9.80
2018-06-22T02:50:20.480Z,9.70
2018-06-22T02:55:17.647Z,9.70
2018-06-22T02:57:45.867Z,9.80
2018-06-22T03:00:14.961Z,9.80
2018-06-22T03:02:43.161Z,9.80
2018-06-22T03:05:11.828Z,9.80
2018-06-22T03:07:40.044Z,9.80
2018-06-22T03:10:08.245Z,9.80
2018-06-22T03:12:37.416Z,9.80
2018-06-22T03:15:05.793Z,9.70
2018-06-22T03:17:34.012Z,9.70
2018-06-22T03:20:02.369Z,9.70
2018-06-22T03:22:30.583Z,9.60
2018-06-22T03:24:58.823Z,9.60
2018-06-22T03:29:55.475Z,9.60
2018-06-22T03:34:51.719Z,9.60
2018-06-22T03:37:19.939Z,9.50
2018-06-22T03:39:48.173Z,9.50
2018-06-22T03:42:16.469Z,9.50
2018-06-22T03:44:44.659Z,9.40
2018-06-22T03:47:16.083Z,9.50
2018-06-22T03:49:44.296Z,9.50
2018-06-22T03:52:12.576Z,9.50
2018-06-22T03:54:41.328Z,9.60
2018-06-22T03:57:09.576Z,10.10
2018-06-22T03:59:37.779Z,10.30
2018-06-22T04:02:06.227Z,10.80
2018-06-22T04:04:34.425Z,10.80
2018-06-22T04:07:02.736Z,11.20
2018-06-22T04:09:31.595Z,11.30
2018-06-22T04:11:59.860Z,11.70
2018-06-22T04:14:28.084Z,11.70
2018-06-22T04:16:56.308Z,12.00
2018-06-22T04:19:24.708Z,11.80
2018-06-22T04:21:52.907Z,11.70
2018-06-22T04:24:21.489Z,12.40
2018-06-22T04:26:50.581Z,12.80
2018-06-22T04:29:19.754Z,13.80
2018-06-22T04:31:48.560Z,13.90
2018-06-22T04:34:16.824Z,13.60
2018-06-22T04:36:45.843Z,12.70
2018-06-22T04:39:14.067Z,12.10
2018-06-22T04:41:42.338Z,11.80
2018-06-22T04:44:10.607Z,11.70
2018-06-22T04:46:39.129Z,12.70
2018-06-22T04:49:07.337Z,14.10
2018-06-22T04:51:37.756Z,15.00
2018-06-22T04:54:05.972Z,15.50
2018-06-22T05:15:55.328Z,15.60
2018-06-22T05:18:27.557Z,16.20
2018-06-22T05:20:59.428Z,15.40
2018-06-22T05:23:27.652Z,13.80
2018-06-22T05:25:56.130Z,13.50
2018-06-22T05:30:52.556Z,14.40
2018-06-22T05:33:20.812Z,13.90
2018-06-22T05:35:53.071Z,14.00
2018-06-22T05:38:21.543Z,14.50
2018-06-22T05:40:54.169Z,14.60
2018-06-22T05:43:23.379Z,14.50
2018-06-22T05:45:51.761Z,13.80
2018-06-22T05:50:48.977Z,13.60
2018-06-22T05:53:17.799Z,13.90
2018-06-22T05:58:15.312Z,14.30
2018-06-22T06:00:43.587Z,13.40
2018-06-22T06:05:40.364Z,14.80
2018-06-22T06:08:08.559Z,15.50
2018-06-22T06:10:36.791Z,14.50
2018-06-22T06:15:33.256Z,15.50
2018-06-22T06:18:01.461Z,16.40
2018-06-22T06:20:29.697Z,15.30
2018-06-22T06:22:57.912Z,14.50
2018-06-22T06:25:26.152Z,14.40
2018-06-22T06:27:54.438Z,14.60
2018-06-22T06:30:22.712Z,15.70
2018-06-22T06:32:51.653Z,15.30
2018-06-22T06:35:20.513Z,15.50
2018-06-22T06:37:48.795Z,15.50
2018-06-22T06:40:17.028Z,14.20
2018-06-22T06:42:46.131Z,14.30
2018-06-22T06:45:14.732Z,14.20
2018-06-22T06:50:16.279Z,13.50
2018-06-22T06:52:44.561Z,13.10
2018-06-22T06:55:13.415Z,13.10
2018-06-22T06:57:42.729Z,12.80
2018-06-22T07:00:11.844Z,12.60
2018-06-22T07:02:40.166Z,12.60
2018-06-22T07:07:36.779Z,13.10
2018-06-22T07:10:07.032Z,12.90
2018-06-22T07:12:36.415Z,12.80
2018-06-22T07:17:33.669Z,13.10
2018-06-22T07:20:03.249Z,13.00
2018-06-22T07:22:32.380Z,12.60
2018-06-22T07:25:02.164Z,12.70
2018-06-22T07:27:30.477Z,12.80
2018-06-22T07:29:59.758Z,13.20
2018-06-22T07:32:28.056Z,13.40
2018-06-22T07:34:57.013Z,13.50
2018-06-22T07:37:26.145Z,13.10
2018-06-22T07:39:54.376Z,13.20
2018-06-22T07:42:22.808Z,13.30
2018-06-22T07:44:51.060Z,13.00
2018-06-22T07:47:19.301Z,13.30
2018-06-22T07:49:47.554Z,13.40
2018-06-22T07:52:15.992Z,13.20
2018-06-22T07:54:44.336Z,13.50
2018-06-22T07:57:12.572Z,13.70
2018-06-22T07:59:40.972Z,13.10
2018-06-22T08:02:09.231Z,13.10
2018-06-22T08:07:08.727Z,13.60
2018-06-22T08:09:37.024Z,14.20
2018-06-22T08:14:33.611Z,14.70
2018-06-22T08:17:01.949Z,14.20
2018-06-22T08:19:30.476Z,14.30
2018-06-22T08:22:02.920Z,15.00
2018-06-22T08:24:31.109Z,15.20
2018-06-22T08:31:55.779Z,14.20
2018-06-22T08:34:23.956Z,14.20
2018-06-22T08:36:52.172Z,14.30
2018-06-22T08:39:21.024Z,14.30
2018-06-22T08:41:49.303Z,14.40
2018-06-22T08:46:45.516Z,14.00
2018-06-22T08:49:13.691Z,14.00
2018-06-22T08:51:45.932Z,14.10
2018-06-22T08:54:14.199Z,13.90
2018-06-22T08:56:42.409Z,13.70
2018-06-22T08:59:10.635Z,14.00
2018-06-22T09:01:38.827Z,14.10
2018-06-22T09:04:08.263Z,13.70
2018-06-22T09:09:07.980Z,13.80
2018-06-22T09:11:37.287Z,13.60
2018-06-22T09:14:05.620Z,13.20
2018-06-22T09:16:33.883Z,13.50
2018-06-22T09:19:02.172Z,13.40
2018-06-22T09:21:30.360Z,13.40
2018-06-22T09:24:06.267Z,13.30
2018-06-22T09:26:35.399Z,13.30
2018-06-22T09:29:03.647Z,13.50
2018-06-22T09:31:33.105Z,13.10
2018-06-22T09:34:01.405Z,13.30
2018-06-22T09:36:30.172Z,13.20
2018-06-22T09:39:02.749Z,12.80
2018-06-22T09:41:31.732Z,12.50
2018-06-22T09:43:59.983Z,12.20
2018-06-22T09:46:28.192Z,11.80
2018-06-22T09:48:56.668Z,11.80
2018-06-22T09:51:24.861Z,11.90
2018-06-22T09:53:53.094Z,12.10
2018-06-22T09:56:21.313Z,12.30
2018-06-22T09:58:49.617Z,12.40
2018-06-22T10:01:17.809Z,12.10
2018-06-22T10:06:14.112Z,12.30
2018-06-22T10:08:42.665Z,12.80
2018-06-22T10:11:18.837Z,13.20
2018-06-22T10:13:47.392Z,13.80
2018-06-22T10:16:15.683Z,13.70
2018-06-22T10:18:44.763Z,13.80
2018-06-22T10:21:13.319Z,14.10
2018-06-22T10:23:49.866Z,14.10
2018-06-22T10:26:18.200Z,14.00
2018-06-22T10:28:47.576Z,14.00
2018-06-22T10:31:16.113Z,14.00
2018-06-22T10:33:44.432Z,13.60
2018-06-22T10:36:14.008Z,13.20
2018-06-22T10:38:42.268Z,13.00
2018-06-22T10:41:13.676Z,13.10
2018-06-22T10:43:41.981Z,13.60
2018-06-22T10:46:10.352Z,14.40
2018-06-22T10:48:38.701Z,14.90
2018-06-22T10:51:08.328Z,14.70
2018-06-22T10:53:46.646Z,14.00
2018-06-22T10:56:16.116Z,14.20
2018-06-22T10:58:45.268Z,14.00
2018-06-22T11:01:13.537Z,13.90
2018-06-22T11:03:41.886Z,14.30
2018-06-22T11:06:10.093Z,14.40
2018-06-22T11:08:41.528Z,14.40
2018-06-22T11:11:10.057Z,14.20
2018-06-22T11:13:38.363Z,14.00
2018-06-22T11:16:07.042Z,14.10
2018-06-22T11:18:35.292Z,14.20
2018-06-22T11:21:03.667Z,14.00
2018-06-22T11:23:31.927Z,14.00
2018-06-22T11:26:00.124Z,13.90
2018-06-22T11:28:28.355Z,14.10
2018-06-22T11:30:58.066Z,14.10
2018-06-22T11:33:26.457Z,14.30
2018-06-22T11:35:54.819Z,14.40
2018-06-22T11:38:23.303Z,14.70
2018-06-22T11:40:51.576Z,14.90
2018-06-22T11:43:19.802Z,15.00
2018-06-22T11:45:54.685Z,15.10
2018-06-22T11:48:22.887Z,15.10
2018-06-22T11:50:51.128Z,14.50
2018-06-22T11:53:20.337Z,14.30
2018-06-22T11:55:48.535Z,14.50
2018-06-22T12:00:44.765Z,14.90
2018-06-22T12:03:12.999Z,15.10
2018-06-22T12:05:41.243Z,15.20
2018-06-22T12:08:09.888Z,15.60
2018-06-22T12:10:42.101Z,16.40
2018-06-22T12:13:10.945Z,16.40
2018-06-22T12:15:40.269Z,16.00
2018-06-22T12:18:08.524Z,16.40
2018-06-22T12:20:36.809Z,16.60
2018-06-22T12:23:05.251Z,15.90
2018-06-22T12:25:36.657Z,16.30
2018-06-22T12:28:05.720Z,15.30
2018-06-22T12:30:33.943Z,15.50
2018-06-22T12:33:02.660Z,15.20
2018-06-22T12:35:30.831Z,14.80
2018-06-22T12:37:59.105Z,14.50
2018-06-22T12:40:30.820Z,14.90
2018-06-22T12:42:59.099Z,15.10
2018-06-22T12:47:55.444Z,14.70
2018-06-22T12:50:23.658Z,15.20
2018-06-22T12:52:51.900Z,15.60
2018-06-22T12:55:23.433Z,15.50
2018-06-22T12:57:52.762Z,15.80
2018-06-22T13:00:21.113Z,15.50
2018-06-22T13:02:49.320Z,15.50
2018-06-22T13:05:17.572Z,14.80
2018-06-22T13:07:46.570Z,14.30
2018-06-22T13:10:15.420Z,14.40
2018-06-22T13:12:44.047Z,14.00
2018-06-22T13:15:13.467Z,14.20
2018-06-22T13:17:41.930Z,14.20
2018-06-22T13:20:10.481Z,14.30
2018-06-22T13:22:38.757Z,14.30
2018-06-22T13:25:07.007Z,14.70
2018-06-22T13:27:35.326Z,14.70
2018-06-22T13:30:04.522Z,14.90
2018-06-22T13:32:34.394Z,15.40
2018-06-22T13:37:30.684Z,15.90
2018-06-22T13:39:58.893Z,15.90
2018-06-22T13:42:31.612Z,15.50
2018-06-22T13:47:29.748Z,15.70
2018-06-22T13:49:58.023Z,15.80
2018-06-22T13:52:26.753Z,15.90
2018-06-22T13:57:27.325Z,15.80
2018-06-22T14:00:00.901Z,15.40
2018-06-22T14:02:29.415Z,15.00
2018-06-22T14:05:03.095Z,13.80
2018-06-22T14:07:31.331Z,12.50
2018-06-22T14:10:00.369Z,12.10
2018-06-22T14:15:00.208Z,12.70
2018-06-22T14:17:29.273Z,13.40
2018-06-22T14:19:58.070Z,14.00
2018-06-22T14:22:26.337Z,14.40
2018-06-22T14:24:54.619Z,14.50
2018-06-22T14:27:27.811Z,14.60
2018-06-22T15:48:57.790Z,14.70
2018-06-22T15:51:31.513Z,14.60
2018-06-22T15:54:05.006Z,14.60
2018-06-22T15:56:33.313Z,14.70
2018-06-22T15:59:01.570Z,14.80
2018-06-22T16:01:29.948Z,14.90
2018-06-22T16:03:59.810Z,15.00
2018-06-22T16:06:28.648Z,15.30
2018-06-22T16:08:56.924Z,15.70
2018-06-22T16:11:29.242Z,16.60
2018-06-22T16:14:06.665Z,17.20
2018-06-22T16:16:40.397Z,17.60
2018-06-22T16:19:14.766Z,17.60
2018-06-22T16:21:48.186Z,18.10
2018-06-22T16:24:22.820Z,18.50
2018-06-22T16:29:38.557Z,18.40
2018-06-22T16:32:06.897Z,18.80
2018-06-22T16:34:35.140Z,19.10
2018-06-22T16:37:03.749Z,19.70
2018-06-22T16:39:32.872Z,19.80
2018-06-22T16:42:01.175Z,20.80
2018-06-22T16:44:42.406Z,20.10
2018-06-22T16:47:10.680Z,18.10
2018-06-22T16:49:38.899Z,16.10
2018-06-22T16:52:07.100Z,15.80
2018-06-22T16:54:36.652Z,15.70
2018-06-22T16:57:05.248Z,15.50
2018-06-22T16:59:33.464Z,15.40
2018-06-22T17:02:01.716Z,15.40
2018-06-22T17:04:30.057Z,15.60
2018-06-22T17:07:03.621Z,15.30
2018-06-22T17:09:38.098Z,15.40
2018-06-22T17:12:11.744Z,15.20
2018-06-22T17:14:45.340Z,15.20
2018-06-22T17:17:19.816Z,15.10
2018-06-22T17:19:48.180Z,15.20
2018-06-22T17:22:16.435Z,15.40
2018-06-22T17:24:45.603Z,15.50
2018-06-22T17:27:14.458Z,15.70
2018-06-22T17:29:42.761Z,15.40
2018-06-22T17:32:15.452Z,15.40
2018-06-22T17:34:43.757Z,15.30
2018-06-22T17:37:12.197Z,15.30
2018-06-22T17:39:41.158Z,15.40
2018-06-22T17:42:09.676Z,17.00
2018-06-22T17:44:38.025Z,18.40
2018-06-22T17:47:09.461Z,18.90
2018-06-22T17:49:38.108Z,18.20
2018-06-22T17:52:06.504Z,19.60
2018-06-22T17:54:36.450Z,19.30
2018-06-22T17:57:04.798Z,19.60
2018-06-22T17:59:38.432Z,20.90
2018-06-22T18:02:12.909Z,20.50
2018-06-22T18:04:44.869Z,18.50
2018-06-22T18:07:36.442Z,19.70
2018-06-22T18:10:10.528Z,20.30
2018-06-22T18:12:44.547Z,20.00
2018-06-22T18:15:12.781Z,19.30
2018-06-22T18:17:41.093Z,20.50
2018-06-22T18:22:37.483Z,19.60
2018-06-22T18:25:05.805Z,20.00
2018-06-22T18:27:37.492Z,19.30
2018-06-22T18:30:07.742Z,18.20
2018-06-22T18:32:39.841Z,16.90
2018-06-22T18:35:09.857Z,16.20
2018-06-22T18:37:38.663Z,17.50
2018-06-22T18:40:09.856Z,17.60
2018-06-22T18:42:38.161Z,17.00
2018-06-22T18:45:07.912Z,17.00
2018-06-22T18:47:36.210Z,16.10
2018-06-22T18:50:05.400Z,15.40
2018-06-22T18:55:17.912Z,15.30
2018-06-22T18:57:52.090Z,15.80
2018-06-22T19:02:29.205Z,15.40
2018-06-22T19:04:58.067Z,15.00
2018-06-22T19:07:26.396Z,14.60
2018-06-22T19:09:55.433Z,14.40
2018-06-22T19:12:24.239Z,14.30
2018-06-22T19:14:52.660Z,14.20
2018-06-22T19:17:20.997Z,14.20
2018-06-22T19:19:49.953Z,14.10
2018-06-22T19:24:46.265Z,14.00
2018-06-22T19:27:15.059Z,14.00
2018-06-22T19:29:43.320Z,14.00
2018-06-22T19:32:14.865Z,14.00
2018-06-22T19:34:48.581Z,13.90
2018-06-22T19:37:16.885Z,13.90
2018-06-22T19:42:15.001Z,13.70
2018-06-22T19:44:48.776Z,13.70
2018-06-22T19:47:25.969Z,13.60
2018-06-22T19:50:00.065Z,13.50
2018-06-22T19:52:35.113Z,13.40
2018-06-22T19:55:03.554Z,13.40
2018-06-22T19:57:31.965Z,13.30
2018-06-22T20:00:00.552Z,13.30
2018-06-22T20:02:37.476Z,13.30
2018-06-22T20:05:07.848Z,13.30
2018-06-22T20:10:12.051Z,13.20
2018-06-22T20:12:40.972Z,13.30
2018-06-22T20:15:09.310Z,13.30
2018-06-22T20:17:38.709Z,13.30
2018-06-22T20:20:07.630Z,13.20
2018-06-22T20:22:36.631Z,13.20
2018-06-22T20:25:10.320Z,13.20
2018-06-22T20:27:38.785Z,13.10
2018-06-22T20:30:07.349Z,13.00
2018-06-22T20:32:35.777Z,12.90
2018-06-22T20:35:09.441Z,12.90
2018-06-22T20:37:43.190Z,12.90
2018-06-22T20:40:16.959Z,12.80
2018-06-22T20:42:48.955Z,12.90
2018-06-22T20:45:23.862Z,12.90
2018-06-22T20:50:31.697Z,12.90
2018-06-22T20:53:00.157Z,12.90
2018-06-22T20:57:57.565Z,12.90
2018-06-22T21:00:26.391Z,13.00
2018-06-22T21:02:54.647Z,13.00
2018-06-22T21:05:25.956Z,12.90
2018-06-22T21:07:57.548Z,12.90
2018-06-22T21:10:25.804Z,12.80
2018-06-22T21:12:55.139Z,12.80
2018-06-22T21:15:24.401Z,12.80
2018-06-22T21:17:55.149Z,12.80
2018-06-22T21:20:31.255Z,12.80
2018-06-22T21:22:59.584Z,12.80
2018-06-22T21:25:27.866Z,12.80
2018-06-22T21:28:02.605Z,12.80
2018-06-22T21:30:36.258Z,12.90
2018-06-22T21:35:47.075Z,12.80
2018-06-22T21:39:24.431Z,12.80
2018-06-22T21:41:52.640Z,12.80
2018-06-22T21:44:21.141Z,12.70
2018-06-22T21:46:49.423Z,12.70
2018-06-22T21:49:29.125Z,12.80
2018-06-22T21:51:58.520Z,12.80
2018-06-22T21:54:26.803Z,12.80
2018-06-22T21:56:55.110Z,12.70
2018-06-22T21:59:23.429Z,12.80
2018-06-22T22:01:51.712Z,12.80
2018-06-22T22:04:23.089Z,12.80
2018-06-22T22:06:51.320Z,12.80
2018-06-22T22:09:19.568Z,12.80
2018-06-22T22:11:55.194Z,12.80
2018-06-22T22:14:24.852Z,12.80
2018-06-22T22:16:53.199Z,12.80
2018-06-22T22:19:21.668Z,12.80
2018-06-22T22:21:57.421Z,12.80
2018-06-22T22:24:26.086Z,12.70
2018-06-22T22:26:54.489Z,12.70
2018-06-22T22:29:22.845Z,12.70
2018-06-22T22:31:51.140Z,12.70
2018-06-22T22:34:20.457Z,12.70
2018-06-22T22:36:48.762Z,12.70
2018-06-22T22:39:16.992Z,12.70
2018-06-22T22:41:45.346Z,12.70
2018-06-22T22:44:13.657Z,12.70
2018-06-22T22:46:41.923Z,12.70
2018-06-22T22:49:10.218Z,12.70
2018-06-22T22:51:41.524Z,12.70
2018-06-22T22:54:10.640Z,12.70
2018-06-22T22:56:38.977Z,12.60
2018-06-22T22:59:07.212Z,12.60
2018-06-22T23:01:35.533Z,12.60
2018-06-22T23:04:04.614Z,12.50
2018-06-22T23:06:35.109Z,12.50
2018-06-22T23:09:03.784Z,12.50
2018-06-22T23:11:32.993Z,12.40
2018-06-22T23:14:01.349Z,12.30
2018-06-22T23:16:30.458Z,12.30
2018-06-22T23:18:58.732Z,12.20
2018-06-22T23:21:34.502Z,12.20
2018-06-22T23:24:02.877Z,12.20
2018-06-22T23:26:31.665Z,12.20
2018-06-22T23:28:59.973Z,12.10
2018-06-22T23:31:28.490Z,12.00
2018-06-22T23:33:56.821Z,11.90
2018-06-22T23:38:54.041Z,11.80
2018-06-22T23:41:22.273Z,11.80
2018-06-22T23:43:51.794Z,11.70
2018-06-22T23:46:20.117Z,11.60
2018-06-22T23:48:48.315Z,11.70
2018-06-22T23:51:19.801Z,11.70
2018-06-22T23:53:48.029Z,11.70
2018-06-22T23:56:16.527Z,11.60
2018-06-22T23:58:44.827Z,11.60
